sensor_id;sensor_type;location;lat;lon;timestamp;P1;durP1;ratioP1;P2;durP2;ratioP2
62903;SDS011;49000;50.698;13.322;2022-08-01T00:01:37;2.53;;;2.33;;
62903;SDS011;49000;50.698;13.322;2022-08-01T00:04:02;4.23;;;2.60;;
62903;SDS011;49000;50.698;13.322;2022-08-01T00:06:29;2.83;;;2.63;;
62903;SDS011;49000;50.698;13.322;2022-08-01T00:08:54;2.50;;;2.30;;
62903;SDS011;49000;50.698;13.322;2022-08-01T00:11:20;2.90;;;2.70;;
62903;SDS011;49000;50.698;13.322;2022-08-01T00:13:46;3.07;;;2.70;;
62903;SDS011;49000;50.698;13.322;2022-08-01T00:16:11;2.70;;;2.47;;
62903;SDS011;49000;50.698;13.322;2022-08-01T00:18:37;3.90;;;2.80;;
62903;SDS011;49000;50.698;13.322;2022-08-01T00:21:03;2.67;;;2.47;;
62903;SDS011;49000;50.698;13.322;2022-08-01T00:23:29;2.53;;;2.33;;
62903;SDS011;49000;50.698;13.322;2022-08-01T00:25:55;4.07;;;2.40;;
62903;SDS011;49000;50.698;13.322;2022-08-01T00:28:21;2.60;;;2.40;;
62903;SDS011;49000;50.698;13.322;2022-08-01T00:30:46;2.60;;;2.40;;
62903;SDS011;49000;50.698;13.322;2022-08-01T00:33:12;3.03;;;2.73;;
62903;SDS011;49000;50.698;13.322;2022-08-01T00:35:37;3.00;;;2.70;;
62903;SDS011;49000;50.698;13.322;2022-08-01T00:38:02;3.43;;;2.80;;
62903;SDS011;49000;50.698;13.322;2022-08-01T00:40:28;4.03;;;2.80;;
62903;SDS011;49000;50.698;13.322;2022-08-01T00:42:53;3.03;;;2.73;;
62903;SDS011;49000;50.698;13.322;2022-08-01T00:45:19;3.00;;;2.70;;
62903;SDS011;49000;50.698;13.322;2022-08-01T00:47:45;3.60;;;2.87;;
62903;SDS011;49000;50.698;13.322;2022-08-01T00:50:10;3.30;;;3.00;;
62903;SDS011;49000;50.698;13.322;2022-08-01T00:52:36;3.13;;;2.67;;
62903;SDS011;49000;50.698;13.322;2022-08-01T00:55:02;2.90;;;2.70;;
62903;SDS011;49000;50.698;13.322;2022-08-01T00:57:27;3.00;;;2.80;;
62903;SDS011;49000;50.698;13.322;2022-08-01T00:59:54;2.57;;;2.37;;
62903;SDS011;49000;50.698;13.322;2022-08-01T01:02:19;3.83;;;2.93;;
62903;SDS011;49000;50.698;13.322;2022-08-01T01:04:45;3.03;;;2.73;;
62903;SDS011;49000;50.698;13.322;2022-08-01T01:09:45;2.70;;;2.50;;
62903;SDS011;49000;50.698;13.322;2022-08-01T01:12:22;3.17;;;2.33;;
62903;SDS011;49000;50.698;13.322;2022-08-01T01:18:00;3.33;;;3.03;;
62903;SDS011;49000;50.698;13.322;2022-08-01T01:20:30;3.63;;;2.80;;
62903;SDS011;49000;50.698;13.322;2022-08-01T01:25:47;4.13;;;2.87;;
62903;SDS011;49000;50.698;13.322;2022-08-01T01:31:26;3.70;;;3.27;;
62903;SDS011;49000;50.698;13.322;2022-08-01T01:33:53;2.60;;;2.40;;
62903;SDS011;49000;50.698;13.322;2022-08-01T01:36:20;2.83;;;2.63;;
62903;SDS011;49000;50.698;13.322;2022-08-01T01:38:46;3.20;;;2.43;;
62903;SDS011;49000;50.698;13.322;2022-08-01T01:41:14;3.13;;;2.83;;
62903;SDS011;49000;50.698;13.322;2022-08-01T01:43:41;3.30;;;3.00;;
62903;SDS011;49000;50.698;13.322;2022-08-01T01:46:09;3.17;;;2.87;;
62903;SDS011;49000;50.698;13.322;2022-08-01T01:48:37;3.60;;;2.80;;
62903;SDS011;49000;50.698;13.322;2022-08-01T01:51:04;2.97;;;2.67;;
62903;SDS011;49000;50.698;13.322;2022-08-01T01:53:31;3.30;;;3.00;;
62903;SDS011;49000;50.698;13.322;2022-08-01T01:55:59;5.27;;;2.97;;
62903;SDS011;49000;50.698;13.322;2022-08-01T01:58:26;3.93;;;2.70;;
62903;SDS011;49000;50.698;13.322;2022-08-01T02:00:53;3.23;;;2.60;;
62903;SDS011;49000;50.698;13.322;2022-08-01T02:03:21;3.50;;;3.20;;
62903;SDS011;49000;50.698;13.322;2022-08-01T02:05:48;3.00;;;2.70;;
62903;SDS011;49000;50.698;13.322;2022-08-01T02:08:17;3.13;;;2.63;;
62903;SDS011;49000;50.698;13.322;2022-08-01T02:10:42;3.30;;;3.00;;
62903;SDS011;49000;50.698;13.322;2022-08-01T02:13:30;3.13;;;2.47;;
62903;SDS011;49000;50.698;13.322;2022-08-01T02:15:57;3.03;;;2.40;;
62903;SDS011;49000;50.698;13.322;2022-08-01T02:18:23;3.00;;;2.70;;
62903;SDS011;49000;50.698;13.322;2022-08-01T02:20:49;2.80;;;2.60;;
62903;SDS011;49000;50.698;13.322;2022-08-01T02:23:17;3.83;;;2.73;;
62903;SDS011;49000;50.698;13.322;2022-08-01T02:25:48;3.33;;;3.03;;
62903;SDS011;49000;50.698;13.322;2022-08-01T02:28:16;3.33;;;3.03;;
62903;SDS011;49000;50.698;13.322;2022-08-01T02:31:00;3.87;;;2.63;;
62903;SDS011;49000;50.698;13.322;2022-08-01T02:33:32;2.40;;;2.20;;
62903;SDS011;49000;50.698;13.322;2022-08-01T02:36:01;3.60;;;2.70;;
62903;SDS011;49000;50.698;13.322;2022-08-01T02:38:29;2.87;;;2.60;;
62903;SDS011;49000;50.698;13.322;2022-08-01T02:40:58;2.83;;;2.63;;
62903;SDS011;49000;50.698;13.322;2022-08-01T02:43:28;4.07;;;3.20;;
62903;SDS011;49000;50.698;13.322;2022-08-01T02:45:58;2.93;;;2.63;;
62903;SDS011;49000;50.698;13.322;2022-08-01T02:48:26;3.53;;;2.87;;
62903;SDS011;49000;50.698;13.322;2022-08-01T02:50:54;2.73;;;2.50;;
62903;SDS011;49000;50.698;13.322;2022-08-01T02:53:24;2.63;;;2.43;;
62903;SDS011;49000;50.698;13.322;2022-08-01T02:55:52;2.80;;;2.60;;
62903;SDS011;49000;50.698;13.322;2022-08-01T02:58:18;4.37;;;2.60;;
62903;SDS011;49000;50.698;13.322;2022-08-01T03:00:46;2.50;;;2.30;;
62903;SDS011;49000;50.698;13.322;2022-08-01T03:03:13;2.80;;;2.60;;
62903;SDS011;49000;50.698;13.322;2022-08-01T03:05:40;3.17;;;2.87;;
62903;SDS011;49000;50.698;13.322;2022-08-01T03:08:08;2.70;;;2.50;;
62903;SDS011;49000;50.698;13.322;2022-08-01T03:10:36;2.87;;;2.60;;
62903;SDS011;49000;50.698;13.322;2022-08-01T03:13:03;3.37;;;2.60;;
62903;SDS011;49000;50.698;13.322;2022-08-01T03:15:31;4.07;;;2.77;;
62903;SDS011;49000;50.698;13.322;2022-08-01T03:17:58;2.47;;;2.27;;
62903;SDS011;49000;50.698;13.322;2022-08-01T03:20:25;4.23;;;2.50;;
62903;SDS011;49000;50.698;13.322;2022-08-01T03:22:54;2.90;;;2.70;;
62903;SDS011;49000;50.698;13.322;2022-08-01T03:25:21;5.77;;;2.37;;
62903;SDS011;49000;50.698;13.322;2022-08-01T03:27:56;3.00;;;2.37;;
62903;SDS011;49000;50.698;13.322;2022-08-01T03:30:26;2.53;;;2.33;;
62903;SDS011;49000;50.698;13.322;2022-08-01T03:32:53;2.57;;;2.37;;
62903;SDS011;49000;50.698;13.322;2022-08-01T03:35:19;2.00;;;1.90;;
62903;SDS011;49000;50.698;13.322;2022-08-01T03:37:47;2.20;;;2.07;;
62903;SDS011;49000;50.698;13.322;2022-08-01T03:42:47;3.10;;;2.23;;
62903;SDS011;49000;50.698;13.322;2022-08-01T03:45:27;2.80;;;2.60;;
62903;SDS011;49000;50.698;13.322;2022-08-01T03:48:01;3.10;;;2.30;;
62903;SDS011;49000;50.698;13.322;2022-08-01T03:50:30;2.50;;;2.30;;
62903;SDS011;49000;50.698;13.322;2022-08-01T03:52:59;2.93;;;2.50;;
62903;SDS011;49000;50.698;13.322;2022-08-01T03:55:26;4.13;;;2.20;;
62903;SDS011;49000;50.698;13.322;2022-08-01T03:57:53;2.47;;;2.27;;
62903;SDS011;49000;50.698;13.322;2022-08-01T04:00:19;2.50;;;2.30;;
62903;SDS011;49000;50.698;13.322;2022-08-01T04:02:46;3.10;;;2.13;;
62903;SDS011;49000;50.698;13.322;2022-08-01T04:05:14;3.67;;;2.10;;
62903;SDS011;49000;50.698;13.322;2022-08-01T04:07:40;2.60;;;2.03;;
62903;SDS011;49000;50.698;13.322;2022-08-01T04:10:11;4.13;;;2.00;;
62903;SDS011;49000;50.698;13.322;2022-08-01T04:12:37;1.80;;;1.70;;
62903;SDS011;49000;50.698;13.322;2022-08-01T04:15:03;2.77;;;2.43;;
62903;SDS011;49000;50.698;13.322;2022-08-01T04:17:29;4.60;;;2.53;;
62903;SDS011;49000;50.698;13.322;2022-08-01T04:19:55;1.90;;;1.60;;
62903;SDS011;49000;50.698;13.322;2022-08-01T04:22:20;3.10;;;2.30;;
62903;SDS011;49000;50.698;13.322;2022-08-01T04:24:47;2.87;;;2.50;;
62903;SDS011;49000;50.698;13.322;2022-08-01T04:27:17;3.43;;;2.37;;
62903;SDS011;49000;50.698;13.322;2022-08-01T04:29:47;3.53;;;2.70;;
62903;SDS011;49000;50.698;13.322;2022-08-01T04:32:15;2.83;;;2.57;;
62903;SDS011;49000;50.698;13.322;2022-08-01T04:34:42;2.60;;;2.40;;
62903;SDS011;49000;50.698;13.322;2022-08-01T04:37:11;2.47;;;2.27;;
62903;SDS011;49000;50.698;13.322;2022-08-01T04:39:41;2.80;;;2.47;;
62903;SDS011;49000;50.698;13.322;2022-08-01T04:42:07;2.60;;;2.40;;
62903;SDS011;49000;50.698;13.322;2022-08-01T04:44:34;2.70;;;2.50;;
62903;SDS011;49000;50.698;13.322;2022-08-01T04:47:00;2.90;;;2.50;;
62903;SDS011;49000;50.698;13.322;2022-08-01T04:49:28;2.43;;;2.23;;
62903;SDS011;49000;50.698;13.322;2022-08-01T04:51:56;2.27;;;1.90;;
62903;SDS011;49000;50.698;13.322;2022-08-01T04:54:28;2.80;;;2.60;;
62903;SDS011;49000;50.698;13.322;2022-08-01T04:56:55;2.40;;;2.20;;
62903;SDS011;49000;50.698;13.322;2022-08-01T04:59:28;2.93;;;2.60;;
62903;SDS011;49000;50.698;13.322;2022-08-01T05:02:13;6.93;;;2.60;;
62903;SDS011;49000;50.698;13.322;2022-08-01T05:04:40;2.57;;;2.37;;
62903;SDS011;49000;50.698;13.322;2022-08-01T05:07:07;3.13;;;2.80;;
62903;SDS011;49000;50.698;13.322;2022-08-01T05:09:33;3.30;;;3.00;;
62903;SDS011;49000;50.698;13.322;2022-08-01T05:12:00;4.10;;;3.30;;
62903;SDS011;49000;50.698;13.322;2022-08-01T05:14:28;3.07;;;2.77;;
62903;SDS011;49000;50.698;13.322;2022-08-01T05:16:56;3.00;;;2.70;;
62903;SDS011;49000;50.698;13.322;2022-08-01T05:19:35;4.17;;;2.37;;
62903;SDS011;49000;50.698;13.322;2022-08-01T05:22:02;4.23;;;2.80;;
62903;SDS011;49000;50.698;13.322;2022-08-01T05:24:34;2.67;;;2.37;;
62903;SDS011;49000;50.698;13.322;2022-08-01T05:27:00;2.87;;;2.43;;
62903;SDS011;49000;50.698;13.322;2022-08-01T05:29:26;3.20;;;2.73;;
62903;SDS011;49000;50.698;13.322;2022-08-01T05:31:52;2.93;;;2.63;;
62903;SDS011;49000;50.698;13.322;2022-08-01T05:34:18;4.57;;;3.13;;
62903;SDS011;49000;50.698;13.322;2022-08-01T05:36:44;3.87;;;3.00;;
62903;SDS011;49000;50.698;13.322;2022-08-01T05:39:10;2.60;;;2.40;;
62903;SDS011;49000;50.698;13.322;2022-08-01T05:41:36;3.03;;;2.83;;
62903;SDS011;49000;50.698;13.322;2022-08-01T05:44:02;4.87;;;2.97;;
62903;SDS011;49000;50.698;13.322;2022-08-01T05:46:31;4.40;;;2.63;;
62903;SDS011;49000;50.698;13.322;2022-08-01T05:48:57;2.63;;;2.42;;
62903;SDS011;49000;50.698;13.322;2022-08-01T05:51:23;3.10;;;2.70;;
62903;SDS011;49000;50.698;13.322;2022-08-01T05:53:49;3.07;;;2.77;;
62903;SDS011;49000;50.698;13.322;2022-08-01T05:56:15;2.60;;;1.97;;
62903;SDS011;49000;50.698;13.322;2022-08-01T05:58:41;3.30;;;3.00;;
62903;SDS011;49000;50.698;13.322;2022-08-01T06:01:06;3.30;;;3.00;;
62903;SDS011;49000;50.698;13.322;2022-08-01T06:03:32;3.58;;;3.28;;
62903;SDS011;49000;50.698;13.322;2022-08-01T06:05:58;5.07;;;3.13;;
62903;SDS011;49000;50.698;13.322;2022-08-01T06:08:27;2.92;;;2.63;;
62903;SDS011;49000;50.698;13.322;2022-08-01T06:10:52;3.10;;;2.80;;
62903;SDS011;49000;50.698;13.322;2022-08-01T06:13:18;3.30;;;3.00;;
62903;SDS011;49000;50.698;13.322;2022-08-01T06:15:44;2.73;;;2.20;;
62903;SDS011;49000;50.698;13.322;2022-08-01T06:18:10;3.17;;;2.87;;
62903;SDS011;49000;50.698;13.322;2022-08-01T06:20:35;2.40;;;2.20;;
62903;SDS011;49000;50.698;13.322;2022-08-01T06:23:00;3.43;;;2.50;;
62903;SDS011;49000;50.698;13.322;2022-08-01T06:25:26;2.90;;;2.60;;
62903;SDS011;49000;50.698;13.322;2022-08-01T06:27:51;2.37;;;2.20;;
62903;SDS011;49000;50.698;13.322;2022-08-01T06:30:17;4.13;;;2.70;;
62903;SDS011;49000;50.698;13.322;2022-08-01T06:32:44;2.40;;;2.20;;
62903;SDS011;49000;50.698;13.322;2022-08-01T06:35:09;3.50;;;3.20;;
62903;SDS011;49000;50.698;13.322;2022-08-01T06:37:35;4.10;;;3.10;;
62903;SDS011;49000;50.698;13.322;2022-08-01T06:40:09;4.17;;;3.00;;
62903;SDS011;49000;50.698;13.322;2022-08-01T06:42:36;2.92;;;2.63;;
62903;SDS011;49000;50.698;13.322;2022-08-01T06:45:02;3.40;;;3.10;;
62903;SDS011;49000;50.698;13.322;2022-08-01T06:47:32;3.17;;;2.83;;
62903;SDS011;49000;50.698;13.322;2022-08-01T06:49:58;3.23;;;2.93;;
62903;SDS011;49000;50.698;13.322;2022-08-01T06:52:23;2.88;;;2.53;;
62903;SDS011;49000;50.698;13.322;2022-08-01T06:54:49;2.60;;;2.25;;
62903;SDS011;49000;50.698;13.322;2022-08-01T06:57:15;3.00;;;2.65;;
62903;SDS011;49000;50.698;13.322;2022-08-01T06:59:41;2.47;;;2.28;;
62903;SDS011;49000;50.698;13.322;2022-08-01T07:02:06;2.88;;;2.58;;
62903;SDS011;49000;50.698;13.322;2022-08-01T07:04:32;2.95;;;2.53;;
62903;SDS011;49000;50.698;13.322;2022-08-01T07:06:58;3.03;;;2.65;;
62903;SDS011;49000;50.698;13.322;2022-08-01T07:09:24;2.50;;;1.90;;
62903;SDS011;49000;50.698;13.322;2022-08-01T07:11:50;2.40;;;2.08;;
62903;SDS011;49000;50.698;13.322;2022-08-01T07:14:17;2.03;;;1.83;;
62903;SDS011;49000;50.698;13.322;2022-08-01T07:16:43;2.92;;;1.98;;
62903;SDS011;49000;50.698;13.322;2022-08-01T07:19:08;2.73;;;2.10;;
62903;SDS011;49000;50.698;13.322;2022-08-01T07:21:34;2.30;;;2.10;;
62903;SDS011;49000;50.698;13.322;2022-08-01T07:23:59;2.50;;;2.30;;
62903;SDS011;49000;50.698;13.322;2022-08-01T07:26:25;3.00;;;2.38;;
62903;SDS011;49000;50.698;13.322;2022-08-01T07:28:51;2.87;;;2.30;;
62903;SDS011;49000;50.698;13.322;2022-08-01T07:31:17;2.73;;;2.40;;
62903;SDS011;49000;50.698;13.322;2022-08-01T07:33:43;2.63;;;2.43;;
62903;SDS011;49000;50.698;13.322;2022-08-01T07:36:08;2.67;;;2.28;;
62903;SDS011;49000;50.698;13.322;2022-08-01T07:38:34;2.92;;;2.40;;
62903;SDS011;49000;50.698;13.322;2022-08-01T07:40:59;2.50;;;2.30;;
62903;SDS011;49000;50.698;13.322;2022-08-01T07:43:25;2.40;;;2.17;;
62903;SDS011;49000;50.698;13.322;2022-08-01T07:45:50;3.10;;;2.55;;
62903;SDS011;49000;50.698;13.322;2022-08-01T07:48:16;2.85;;;2.22;;
62903;SDS011;49000;50.698;13.322;2022-08-01T07:50:42;2.85;;;2.33;;
62903;SDS011;49000;50.698;13.322;2022-08-01T07:53:07;2.47;;;2.27;;
62903;SDS011;49000;50.698;13.322;2022-08-01T07:55:35;2.63;;;2.25;;
62903;SDS011;49000;50.698;13.322;2022-08-01T07:58:01;3.78;;;2.25;;
62903;SDS011;49000;50.698;13.322;2022-08-01T08:00:26;2.38;;;2.17;;
62903;SDS011;49000;50.698;13.322;2022-08-01T08:02:53;2.40;;;2.20;;
62903;SDS011;49000;50.698;13.322;2022-08-01T08:05:18;2.28;;;2.08;;
62903;SDS011;49000;50.698;13.322;2022-08-01T08:07:44;2.20;;;2.00;;
62903;SDS011;49000;50.698;13.322;2022-08-01T08:10:10;2.35;;;1.90;;
62903;SDS011;49000;50.698;13.322;2022-08-01T08:12:35;1.60;;;1.50;;
62903;SDS011;49000;50.698;13.322;2022-08-01T08:15:01;1.83;;;1.60;;
62903;SDS011;49000;50.698;13.322;2022-08-01T08:17:30;1.50;;;1.40;;
62903;SDS011;49000;50.698;13.322;2022-08-01T08:19:56;1.50;;;1.40;;
62903;SDS011;49000;50.698;13.322;2022-08-01T08:22:22;1.75;;;1.65;;
62903;SDS011;49000;50.698;13.322;2022-08-01T08:24:47;1.88;;;1.77;;
62903;SDS011;49000;50.698;13.322;2022-08-01T08:27:13;2.00;;;1.73;;
62903;SDS011;49000;50.698;13.322;2022-08-01T08:29:39;2.00;;;1.65;;
62903;SDS011;49000;50.698;13.322;2022-08-01T08:32:05;2.20;;;2.00;;
62903;SDS011;49000;50.698;13.322;2022-08-01T08:34:31;3.13;;;1.88;;
62903;SDS011;49000;50.698;13.322;2022-08-01T08:36:57;1.98;;;1.77;;
62903;SDS011;49000;50.698;13.322;2022-08-01T08:39:23;4.53;;;2.15;;
62903;SDS011;49000;50.698;13.322;2022-08-01T08:41:48;2.22;;;2.03;;
62903;SDS011;49000;50.698;13.322;2022-08-01T08:44:14;2.40;;;2.20;;
62903;SDS011;49000;50.698;13.322;2022-08-01T08:46:41;2.40;;;2.20;;
62903;SDS011;49000;50.698;13.322;2022-08-01T08:49:09;1.95;;;1.75;;
62903;SDS011;49000;50.698;13.322;2022-08-01T08:51:38;1.75;;;1.48;;
62903;SDS011;49000;50.698;13.322;2022-08-01T08:54:05;1.27;;;1.17;;
62903;SDS011;49000;50.698;13.322;2022-08-01T08:56:31;1.40;;;1.30;;
62903;SDS011;49000;50.698;13.322;2022-08-01T08:59:00;1.55;;;1.45;;
62903;SDS011;49000;50.698;13.322;2022-08-01T09:01:27;1.58;;;1.48;;
62903;SDS011;49000;50.698;13.322;2022-08-01T09:03:52;1.63;;;1.52;;
62903;SDS011;49000;50.698;13.322;2022-08-01T09:06:18;1.70;;;1.60;;
62903;SDS011;49000;50.698;13.322;2022-08-01T09:08:44;1.25;;;1.15;;
62903;SDS011;49000;50.698;13.322;2022-08-01T09:11:09;1.70;;;1.50;;
62903;SDS011;49000;50.698;13.322;2022-08-01T09:13:35;1.40;;;1.30;;
62903;SDS011;49000;50.698;13.322;2022-08-01T09:16:01;1.42;;;1.33;;
62903;SDS011;49000;50.698;13.322;2022-08-01T09:18:28;1.42;;;1.25;;
62903;SDS011;49000;50.698;13.322;2022-08-01T09:23:34;1.38;;;1.27;;
62903;SDS011;49000;50.698;13.322;2022-08-01T09:26:07;1.48;;;1.38;;
62903;SDS011;49000;50.698;13.322;2022-08-01T09:28:34;1.33;;;1.20;;
62903;SDS011;49000;50.698;13.322;2022-08-01T09:31:07;1.45;;;1.35;;
62903;SDS011;49000;50.698;13.322;2022-08-01T09:33:51;1.40;;;1.30;;
62903;SDS011;49000;50.698;13.322;2022-08-01T09:36:22;2.47;;;1.17;;
62903;SDS011;49000;50.698;13.322;2022-08-01T09:38:50;1.38;;;1.23;;
62903;SDS011;49000;50.698;13.322;2022-08-01T09:41:17;1.20;;;1.10;;
62903;SDS011;49000;50.698;13.322;2022-08-01T09:43:54;1.55;;;1.38;;
62903;SDS011;49000;50.698;13.322;2022-08-01T09:46:20;1.20;;;1.10;;
62903;SDS011;49000;50.698;13.322;2022-08-01T09:48:56;2.00;;;1.50;;
62903;SDS011;49000;50.698;13.322;2022-08-01T09:51:27;1.23;;;1.13;;
62903;SDS011;49000;50.698;13.322;2022-08-01T09:53:55;0.88;;;0.85;;
62903;SDS011;49000;50.698;13.322;2022-08-01T09:56:22;1.23;;;0.95;;
62903;SDS011;49000;50.698;13.322;2022-08-01T09:58:55;1.17;;;0.95;;
62903;SDS011;49000;50.698;13.322;2022-08-01T10:01:23;1.42;;;1.30;;
62903;SDS011;49000;50.698;13.322;2022-08-01T10:04:05;1.10;;;1.00;;
62903;SDS011;49000;50.698;13.322;2022-08-01T10:06:32;1.10;;;1.00;;
62903;SDS011;49000;50.698;13.322;2022-08-01T10:08:58;1.17;;;1.08;;
62903;SDS011;49000;50.698;13.322;2022-08-01T10:11:23;0.88;;;0.88;;
62903;SDS011;49000;50.698;13.322;2022-08-01T10:13:49;1.10;;;1.00;;
62903;SDS011;49000;50.698;13.322;2022-08-01T10:16:15;1.00;;;0.90;;
62903;SDS011;49000;50.698;13.322;2022-08-01T10:18:41;1.30;;;1.20;;
62903;SDS011;49000;50.698;13.322;2022-08-01T10:21:09;2.28;;;1.20;;
62903;SDS011;49000;50.698;13.322;2022-08-01T10:23:36;1.63;;;1.10;;
62903;SDS011;49000;50.698;13.322;2022-08-01T10:26:04;1.20;;;1.10;;
62903;SDS011;49000;50.698;13.322;2022-08-01T10:28:38;1.75;;;1.10;;
62903;SDS011;49000;50.698;13.322;2022-08-01T10:31:04;0.70;;;0.70;;
62903;SDS011;49000;50.698;13.322;2022-08-01T10:33:30;0.80;;;0.80;;
62903;SDS011;49000;50.698;13.322;2022-08-01T10:35:56;0.80;;;0.80;;
62903;SDS011;49000;50.698;13.322;2022-08-01T10:38:22;0.95;;;0.90;;
62903;SDS011;49000;50.698;13.322;2022-08-01T10:40:48;0.80;;;0.80;;
62903;SDS011;49000;50.698;13.322;2022-08-01T10:43:15;1.35;;;0.90;;
62903;SDS011;49000;50.698;13.322;2022-08-01T10:45:42;0.60;;;0.52;;
62903;SDS011;49000;50.698;13.322;2022-08-01T10:48:16;1.70;;;0.60;;
62903;SDS011;49000;50.698;13.322;2022-08-01T10:50:48;1.77;;;0.50;;
62903;SDS011;49000;50.698;13.322;2022-08-01T10:53:17;1.75;;;0.50;;
62903;SDS011;49000;50.698;13.322;2022-08-01T10:58:22;0.85;;;0.57;;
62903;SDS011;49000;50.698;13.322;2022-08-01T11:03:42;0.70;;;0.40;;
62903;SDS011;49000;50.698;13.322;2022-08-01T11:06:35;0.77;;;0.70;;
62903;SDS011;49000;50.698;13.322;2022-08-01T11:20:06;0.90;;;0.70;;
62903;SDS011;49000;50.698;13.322;2022-08-01T11:30:49;0.77;;;0.68;;
62903;SDS011;49000;50.698;13.322;2022-08-01T11:33:16;0.80;;;0.70;;
62903;SDS011;49000;50.698;13.322;2022-08-01T11:51:59;0.50;;;0.50;;
62903;SDS011;49000;50.698;13.322;2022-08-01T11:54:40;0.50;;;0.50;;
62903;SDS011;49000;50.698;13.322;2022-08-01T11:57:17;0.60;;;0.60;;
62903;SDS011;49000;50.698;13.322;2022-08-01T11:59:51;0.63;;;0.60;;
62903;SDS011;49000;50.698;13.322;2022-08-01T12:02:23;0.93;;;0.60;;
62903;SDS011;49000;50.698;13.322;2022-08-01T12:04:54;0.60;;;0.60;;
62903;SDS011;49000;50.698;13.322;2022-08-01T12:07:22;0.80;;;0.65;;
62903;SDS011;49000;50.698;13.322;2022-08-01T12:09:56;0.50;;;0.50;;
62903;SDS011;49000;50.698;13.322;2022-08-01T12:12:26;0.73;;;0.60;;
62903;SDS011;49000;50.698;13.322;2022-08-01T12:14:53;0.60;;;0.60;;
62903;SDS011;49000;50.698;13.322;2022-08-01T12:17:26;0.80;;;0.60;;
62903;SDS011;49000;50.698;13.322;2022-08-01T12:20:00;2.58;;;0.60;;
62903;SDS011;49000;50.698;13.322;2022-08-01T12:22:27;0.65;;;0.65;;
62903;SDS011;49000;50.698;13.322;2022-08-01T12:24:53;1.00;;;0.60;;
62903;SDS011;49000;50.698;13.322;2022-08-01T12:27:25;0.70;;;0.50;;
62903;SDS011;49000;50.698;13.322;2022-08-01T12:29:53;0.60;;;0.60;;
62903;SDS011;49000;50.698;13.322;2022-08-01T12:32:23;0.60;;;0.50;;
62903;SDS011;49000;50.698;13.322;2022-08-01T12:34:55;0.98;;;0.32;;
62903;SDS011;49000;50.698;13.322;2022-08-01T12:37:21;0.50;;;0.50;;
62903;SDS011;49000;50.698;13.322;2022-08-01T12:39:48;0.68;;;0.60;;
62903;SDS011;49000;50.698;13.322;2022-08-01T12:42:14;1.00;;;0.57;;
62903;SDS011;49000;50.698;13.322;2022-08-01T12:44:40;0.43;;;0.40;;
62903;SDS011;49000;50.698;13.322;2022-08-01T12:47:08;0.43;;;0.40;;
62903;SDS011;49000;50.698;13.322;2022-08-01T12:49:35;0.70;;;0.70;;
62903;SDS011;49000;50.698;13.322;2022-08-01T12:52:01;0.60;;;0.60;;
62903;SDS011;49000;50.698;13.322;2022-08-01T12:54:28;0.60;;;0.60;;
62903;SDS011;49000;50.698;13.322;2022-08-01T12:56:53;0.60;;;0.60;;
62903;SDS011;49000;50.698;13.322;2022-08-01T12:59:19;0.70;;;0.70;;
62903;SDS011;49000;50.698;13.322;2022-08-01T13:01:47;0.40;;;0.40;;
62903;SDS011;49000;50.698;13.322;2022-08-01T13:04:13;0.60;;;0.50;;
62903;SDS011;49000;50.698;13.322;2022-08-01T13:06:38;0.60;;;0.60;;
62903;SDS011;49000;50.698;13.322;2022-08-01T13:09:08;0.65;;;0.60;;
62903;SDS011;49000;50.698;13.322;2022-08-01T13:11:35;0.60;;;0.60;;
62903;SDS011;49000;50.698;13.322;2022-08-01T13:14:01;1.13;;;0.65;;
62903;SDS011;49000;50.698;13.322;2022-08-01T13:16:27;0.50;;;0.50;;
62903;SDS011;49000;50.698;13.322;2022-08-01T13:18:53;0.47;;;0.47;;
62903;SDS011;49000;50.698;13.322;2022-08-01T13:21:22;0.57;;;0.57;;
62903;SDS011;49000;50.698;13.322;2022-08-01T13:24:05;0.60;;;0.60;;
62903;SDS011;49000;50.698;13.322;2022-08-01T13:26:42;0.60;;;0.60;;
62903;SDS011;49000;50.698;13.322;2022-08-01T13:29:10;0.98;;;0.80;;
62903;SDS011;49000;50.698;13.322;2022-08-01T13:31:38;1.00;;;0.63;;
62903;SDS011;49000;50.698;13.322;2022-08-01T13:34:04;0.82;;;0.52;;
62903;SDS011;49000;50.698;13.322;2022-08-01T13:36:30;0.60;;;0.60;;
62903;SDS011;49000;50.698;13.322;2022-08-01T13:38:56;1.73;;;0.60;;
62903;SDS011;49000;50.698;13.322;2022-08-01T13:41:41;0.80;;;0.70;;
62903;SDS011;49000;50.698;13.322;2022-08-01T13:44:06;0.60;;;0.60;;
62903;SDS011;49000;50.698;13.322;2022-08-01T13:46:33;0.50;;;0.50;;
62903;SDS011;49000;50.698;13.322;2022-08-01T13:49:00;1.92;;;0.45;;
62903;SDS011;49000;50.698;13.322;2022-08-01T13:51:26;0.75;;;0.50;;
62903;SDS011;49000;50.698;13.322;2022-08-01T13:53:51;0.60;;;0.60;;
62903;SDS011;49000;50.698;13.322;2022-08-01T13:56:17;0.70;;;0.70;;
62903;SDS011;49000;50.698;13.322;2022-08-01T13:58:43;0.70;;;0.60;;
62903;SDS011;49000;50.698;13.322;2022-08-01T14:01:08;0.52;;;0.50;;
62903;SDS011;49000;50.698;13.322;2022-08-01T14:03:34;0.47;;;0.40;;
62903;SDS011;49000;50.698;13.322;2022-08-01T14:06:00;0.80;;;0.75;;
62903;SDS011;49000;50.698;13.322;2022-08-01T14:08:26;0.60;;;0.60;;
62903;SDS011;49000;50.698;13.322;2022-08-01T14:10:51;1.45;;;0.70;;
62903;SDS011;49000;50.698;13.322;2022-08-01T14:13:18;1.75;;;0.50;;
62903;SDS011;49000;50.698;13.322;2022-08-01T14:15:44;0.43;;;0.43;;
62903;SDS011;49000;50.698;13.322;2022-08-01T14:18:10;0.57;;;0.55;;
62903;SDS011;49000;50.698;13.322;2022-08-01T14:20:35;0.55;;;0.55;;
62903;SDS011;49000;50.698;13.322;2022-08-01T14:23:02;0.57;;;0.57;;
62903;SDS011;49000;50.698;13.322;2022-08-01T14:25:28;0.50;;;0.50;;
62903;SDS011;49000;50.698;13.322;2022-08-01T14:27:53;0.50;;;0.50;;
62903;SDS011;49000;50.698;13.322;2022-08-01T14:30:19;0.35;;;0.35;;
62903;SDS011;49000;50.698;13.322;2022-08-01T14:32:45;0.75;;;0.50;;
62903;SDS011;49000;50.698;13.322;2022-08-01T14:35:10;0.50;;;0.50;;
62903;SDS011;49000;50.698;13.322;2022-08-01T14:37:36;0.60;;;0.60;;
62903;SDS011;49000;50.698;13.322;2022-08-01T14:40:02;0.40;;;0.40;;
62903;SDS011;49000;50.698;13.322;2022-08-01T14:42:30;0.88;;;0.63;;
62903;SDS011;49000;50.698;13.322;2022-08-01T14:44:55;0.40;;;0.40;;
62903;SDS011;49000;50.698;13.322;2022-08-01T14:47:21;0.40;;;0.40;;
62903;SDS011;49000;50.698;13.322;2022-08-01T14:49:47;0.40;;;0.40;;
62903;SDS011;49000;50.698;13.322;2022-08-01T14:52:12;0.40;;;0.40;;
62903;SDS011;49000;50.698;13.322;2022-08-01T14:54:38;0.98;;;0.50;;
62903;SDS011;49000;50.698;13.322;2022-08-01T14:57:03;0.63;;;0.50;;
62903;SDS011;49000;50.698;13.322;2022-08-01T14:59:29;0.50;;;0.50;;
62903;SDS011;49000;50.698;13.322;2022-08-01T15:01:54;0.50;;;0.50;;
62903;SDS011;49000;50.698;13.322;2022-08-01T15:04:20;0.40;;;0.40;;
62903;SDS011;49000;50.698;13.322;2022-08-01T15:06:45;0.40;;;0.40;;
62903;SDS011;49000;50.698;13.322;2022-08-01T15:09:11;0.45;;;0.38;;
62903;SDS011;49000;50.698;13.322;2022-08-01T15:11:36;0.50;;;0.50;;
62903;SDS011;49000;50.698;13.322;2022-08-01T15:14:02;0.50;;;0.50;;
62903;SDS011;49000;50.698;13.322;2022-08-01T15:16:47;1.00;;;0.68;;
62903;SDS011;49000;50.698;13.322;2022-08-01T15:19:12;0.40;;;0.40;;
62903;SDS011;49000;50.698;13.322;2022-08-01T15:21:38;0.55;;;0.55;;
62903;SDS011;49000;50.698;13.322;2022-08-01T15:24:04;0.68;;;0.57;;
62903;SDS011;49000;50.698;13.322;2022-08-01T15:26:30;0.60;;;0.60;;
62903;SDS011;49000;50.698;13.322;2022-08-01T15:28:56;1.45;;;0.40;;
62903;SDS011;49000;50.698;13.322;2022-08-01T15:31:21;0.50;;;0.50;;
62903;SDS011;49000;50.698;13.322;2022-08-01T15:33:46;0.50;;;0.50;;